sensor_id;sensor_type;location;lat;lon;timestamp;temperature;humidity
32293;DHT22;43233;48.608;8.838;2023-04-06T00:01:41;0.40;59.30
32293;DHT22;43233;48.608;8.838;2023-04-06T00:04:06;0.50;58.50
32293;DHT22;43233;48.608;8.838;2023-04-06T00:06:32;0.50;58.00
32293;DHT22;43233;48.608;8.838;2023-04-06T00:08:59;0.60;57.70
32293;DHT22;43233;48.608;8.838;2023-04-06T00:11:25;0.60;57.70
32293;DHT22;43233;48.608;8.838;2023-04-06T00:13:51;0.60;57.60
32293;DHT22;43233;48.608;8.838;2023-04-06T00:16:17;0.70;57.50
32293;DHT22;43233;48.608;8.838;2023-04-06T00:18:43;0.70;58.00
32293;DHT22;43233;48.608;8.838;2023-04-06T00:21:12;0.60;58.50
32293;DHT22;43233;48.608;8.838;2023-04-06T00:23:38;0.60;58.50
32293;DHT22;43233;48.608;8.838;2023-04-06T00:26:04;0.60;58.30
32293;DHT22;43233;48.608;8.838;2023-04-06T00:28:30;0.70;58.30
32293;DHT22;43233;48.608;8.838;2023-04-06T00:30:56;0.60;58.00
32293;DHT22;43233;48.608;8.838;2023-04-06T00:33:22;0.50;59.20
32293;DHT22;43233;48.608;8.838;2023-04-06T00:35:48;0.30;60.60
32293;DHT22;43233;48.608;8.838;2023-04-06T00:38:15;0.10;60.90
32293;DHT22;43233;48.608;8.838;2023-04-06T00:40:41;-0.10;61.60
32293;DHT22;43233;48.608;8.838;2023-04-06T00:43:07;-0.20;61.60
32293;DHT22;43233;48.608;8.838;2023-04-06T00:45:35;-0.30;62.70
32293;DHT22;43233;48.608;8.838;2023-04-06T00:48:01;-0.30;63.10
32293;DHT22;43233;48.608;8.838;2023-04-06T00:50:27;-0.30;63.00
32293;DHT22;43233;48.608;8.838;2023-04-06T00:52:54;-0.20;62.70
32293;DHT22;43233;48.608;8.838;2023-04-06T00:55:20;-0.30;63.10
32293;DHT22;43233;48.608;8.838;2023-04-06T00:57:46;-0.30;63.00
32293;DHT22;43233;48.608;8.838;2023-04-06T01:00:13;-0.20;62.70
32293;DHT22;43233;48.608;8.838;2023-04-06T01:02:39;-0.20;62.70
32293;DHT22;43233;48.608;8.838;2023-04-06T01:05:05;-0.20;62.40
32293;DHT22;43233;48.608;8.838;2023-04-06T01:07:31;-0.10;62.00
32293;DHT22;43233;48.608;8.838;2023-04-06T01:09:57;0.00;61.40
32293;DHT22;43233;48.608;8.838;2023-04-06T01:12:22;0.00;61.40
32293;DHT22;43233;48.608;8.838;2023-04-06T01:14:48;-0.10;61.70
32293;DHT22;43233;48.608;8.838;2023-04-06T01:17:14;-0.10;61.80
32293;DHT22;43233;48.608;8.838;2023-04-06T01:19:39;-0.20;63.20
32293;DHT22;43233;48.608;8.838;2023-04-06T01:22:15;-0.30;64.40
32293;DHT22;43233;48.608;8.838;2023-04-06T01:24:40;-0.30;63.40
32293;DHT22;43233;48.608;8.838;2023-04-06T01:27:06;-0.30;62.70
32293;DHT22;43233;48.608;8.838;2023-04-06T01:29:32;-0.20;62.00
32293;DHT22;43233;48.608;8.838;2023-04-06T01:31:57;-0.10;61.50
32293;DHT22;43233;48.608;8.838;2023-04-06T01:34:23;0.00;60.70
32293;DHT22;43233;48.608;8.838;2023-04-06T01:36:49;0.20;59.70
32293;DHT22;43233;48.608;8.838;2023-04-06T01:39:14;0.20;59.80
32293;DHT22;43233;48.608;8.838;2023-04-06T01:41:40;0.20;59.60
32293;DHT22;43233;48.608;8.838;2023-04-06T01:44:06;0.20;60.30
32293;DHT22;43233;48.608;8.838;2023-04-06T01:46:31;0.20;59.60
32293;DHT22;43233;48.608;8.838;2023-04-06T01:48:57;0.10;59.70
32293;DHT22;43233;48.608;8.838;2023-04-06T01:51:23;0.10;61.30
32293;DHT22;43233;48.608;8.838;2023-04-06T01:53:50;-0.10;61.00
32293;DHT22;43233;48.608;8.838;2023-04-06T01:56:16;-0.10;61.20
32293;DHT22;43233;48.608;8.838;2023-04-06T01:58:41;-0.20;62.40
32293;DHT22;43233;48.608;8.838;2023-04-06T02:01:07;-0.30;62.60
32293;DHT22;43233;48.608;8.838;2023-04-06T02:03:33;-0.40;63.10
32293;DHT22;43233;48.608;8.838;2023-04-06T02:05:58;-0.40;63.30
32293;DHT22;43233;48.608;8.838;2023-04-06T02:08:24;-0.40;63.30
32293;DHT22;43233;48.608;8.838;2023-04-06T02:10:50;-0.40;63.40
32293;DHT22;43233;48.608;8.838;2023-04-06T02:13:15;-0.40;63.90
32293;DHT22;43233;48.608;8.838;2023-04-06T02:15:41;-0.50;64.00
32293;DHT22;43233;48.608;8.838;2023-04-06T02:18:07;-0.40;63.70
32293;DHT22;43233;48.608;8.838;2023-04-06T02:20:32;-0.40;64.10
32293;DHT22;43233;48.608;8.838;2023-04-06T02:22:59;-0.30;64.10
32293;DHT22;43233;48.608;8.838;2023-04-06T02:25:25;-0.30;63.80
32293;DHT22;43233;48.608;8.838;2023-04-06T02:27:51;-0.30;63.60
32293;DHT22;43233;48.608;8.838;2023-04-06T02:30:17;-0.20;63.80
32293;DHT22;43233;48.608;8.838;2023-04-06T02:32:43;-0.20;63.60
32293;DHT22;43233;48.608;8.838;2023-04-06T02:35:08;-0.20;63.80
32293;DHT22;43233;48.608;8.838;2023-04-06T02:37:34;-0.20;64.10
32293;DHT22;43233;48.608;8.838;2023-04-06T02:40:00;-0.20;64.40
32293;DHT22;43233;48.608;8.838;2023-04-06T02:42:25;-0.20;65.00
32293;DHT22;43233;48.608;8.838;2023-04-06T02:44:51;-0.20;65.50
32293;DHT22;43233;48.608;8.838;2023-04-06T02:47:17;-0.20;66.00
32293;DHT22;43233;48.608;8.838;2023-04-06T02:49:42;-0.20;67.00
32293;DHT22;43233;48.608;8.838;2023-04-06T02:52:08;-0.20;68.70
32293;DHT22;43233;48.608;8.838;2023-04-06T02:54:33;-0.30;72.30
32293;DHT22;43233;48.608;8.838;2023-04-06T02:56:59;-0.30;77.30
32293;DHT22;43233;48.608;8.838;2023-04-06T02:59:25;-0.30;74.10
32293;DHT22;43233;48.608;8.838;2023-04-06T03:01:51;-0.30;72.40
32293;DHT22;43233;48.608;8.838;2023-04-06T03:04:17;-0.20;71.10
32293;DHT22;43233;48.608;8.838;2023-04-06T03:06:43;-0.20;70.10
32293;DHT22;43233;48.608;8.838;2023-04-06T03:09:08;-0.20;70.70
32293;DHT22;43233;48.608;8.838;2023-04-06T03:11:34;-0.20;70.10
32293;DHT22;43233;48.608;8.838;2023-04-06T03:14:00;-0.20;70.00
32293;DHT22;43233;48.608;8.838;2023-04-06T03:16:25;-0.10;69.40
32293;DHT22;43233;48.608;8.838;2023-04-06T03:18:51;-0.10;69.20
32293;DHT22;43233;48.608;8.838;2023-04-06T03:21:16;-0.10;69.20
32293;DHT22;43233;48.608;8.838;2023-04-06T03:23:42;-0.10;69.40
32293;DHT22;43233;48.608;8.838;2023-04-06T03:26:08;-0.20;69.30
32293;DHT22;43233;48.608;8.838;2023-04-06T03:28:34;-0.30;69.00
32293;DHT22;43233;48.608;8.838;2023-04-06T03:31:00;-0.30;68.40
32293;DHT22;43233;48.608;8.838;2023-04-06T03:33:25;-0.40;68.30
32293;DHT22;43233;48.608;8.838;2023-04-06T03:35:54;-0.40;68.60
32293;DHT22;43233;48.608;8.838;2023-04-06T03:38:20;-0.40;68.20
32293;DHT22;43233;48.608;8.838;2023-04-06T03:40:45;-0.40;68.40
32293;DHT22;43233;48.608;8.838;2023-04-06T03:43:11;-0.40;68.50
32293;DHT22;43233;48.608;8.838;2023-04-06T03:45:37;-0.40;68.50
32293;DHT22;43233;48.608;8.838;2023-04-06T03:48:03;-0.30;68.70
32293;DHT22;43233;48.608;8.838;2023-04-06T03:50:29;-0.40;68.70
32293;DHT22;43233;48.608;8.838;2023-04-06T03:52:54;-0.40;69.20
32293;DHT22;43233;48.608;8.838;2023-04-06T03:55:20;-0.40;69.60
32293;DHT22;43233;48.608;8.838;2023-04-06T03:57:46;-0.40;70.20
32293;DHT22;43233;48.608;8.838;2023-04-06T04:00:12;-0.40;70.90
32293;DHT22;43233;48.608;8.838;2023-04-06T04:02:38;-0.40;70.90
32293;DHT22;43233;48.608;8.838;2023-04-06T04:05:04;-0.40;72.00
32293;DHT22;43233;48.608;8.838;2023-04-06T04:07:30;-0.40;73.70
32293;DHT22;43233;48.608;8.838;2023-04-06T04:09:56;-0.50;55.60
32293;DHT22;43233;48.608;8.838;2023-04-06T04:12:21;-0.40;56.70
32293;DHT22;43233;48.608;8.838;2023-04-06T04:14:47;-0.50;57.60
32293;DHT22;43233;48.608;8.838;2023-04-06T04:17:13;-0.60;58.30
32293;DHT22;43233;48.608;8.838;2023-04-06T04:19:38;-0.90;59.50
32293;DHT22;43233;48.608;8.838;2023-04-06T04:22:04;-1.00;60.10
32293;DHT22;43233;48.608;8.838;2023-04-06T04:24:30;-1.00;60.40
32293;DHT22;43233;48.608;8.838;2023-04-06T04:26:56;-1.00;60.20
32293;DHT22;43233;48.608;8.838;2023-04-06T04:29:22;-1.00;59.80
32293;DHT22;43233;48.608;8.838;2023-04-06T04:31:48;-0.90;59.50
32293;DHT22;43233;48.608;8.838;2023-04-06T04:34:14;-0.80;59.20
32293;DHT22;43233;48.608;8.838;2023-04-06T04:36:40;-0.80;59.20
32293;DHT22;43233;48.608;8.838;2023-04-06T04:39:07;-0.70;58.80
32293;DHT22;43233;48.608;8.838;2023-04-06T04:41:33;-0.70;58.70
32293;DHT22;43233;48.608;8.838;2023-04-06T04:43:58;-0.80;58.70
32293;DHT22;43233;48.608;8.838;2023-04-06T04:46:24;-0.90;59.50
32293;DHT22;43233;48.608;8.838;2023-04-06T04:48:50;-1.00;60.30
32293;DHT22;43233;48.608;8.838;2023-04-06T04:51:15;-1.20;61.30
32293;DHT22;43233;48.608;8.838;2023-04-06T04:53:41;-1.30;61.80
32293;DHT22;43233;48.608;8.838;2023-04-06T04:56:07;-1.30;62.00
32293;DHT22;43233;48.608;8.838;2023-04-06T04:58:32;-1.30;61.80
32293;DHT22;43233;48.608;8.838;2023-04-06T05:00:58;-1.20;61.60
32293;DHT22;43233;48.608;8.838;2023-04-06T05:03:25;-1.20;61.30
32293;DHT22;43233;48.608;8.838;2023-04-06T05:05:51;-1.10;60.70
32293;DHT22;43233;48.608;8.838;2023-04-06T05:08:17;-1.00;60.20
32293;DHT22;43233;48.608;8.838;2023-04-06T05:10:43;-1.00;59.90
32293;DHT22;43233;48.608;8.838;2023-04-06T05:13:10;-0.90;59.70
32293;DHT22;43233;48.608;8.838;2023-04-06T05:15:36;-0.90;59.40
32293;DHT22;43233;48.608;8.838;2023-04-06T05:18:04;-0.70;59.60
32293;DHT22;43233;48.608;8.838;2023-04-06T05:20:30;-0.70;59.60
32293;DHT22;43233;48.608;8.838;2023-04-06T05:22:56;-0.60;59.70
32293;DHT22;43233;48.608;8.838;2023-04-06T05:25:21;-0.70;59.70
32293;DHT22;43233;48.608;8.838;2023-04-06T05:27:47;-0.60;59.50
32293;DHT22;43233;48.608;8.838;2023-04-06T05:30:13;-0.60;59.50
32293;DHT22;43233;48.608;8.838;2023-04-06T05:32:39;-0.60;59.30
32293;DHT22;43233;48.608;8.838;2023-04-06T05:35:05;-0.50;59.30
32293;DHT22;43233;48.608;8.838;2023-04-06T05:37:31;-0.50;59.20
32293;DHT22;43233;48.608;8.838;2023-04-06T05:39:56;-0.40;59.10
32293;DHT22;43233;48.608;8.838;2023-04-06T05:42:22;-0.40;59.00
32293;DHT22;43233;48.608;8.838;2023-04-06T05:44:48;-0.30;59.30
32293;DHT22;43233;48.608;8.838;2023-04-06T05:47:14;-0.30;59.50
32293;DHT22;43233;48.608;8.838;2023-04-06T05:49:42;-0.20;59.60
32293;DHT22;43233;48.608;8.838;2023-04-06T05:52:08;-0.20;59.90
32293;DHT22;43233;48.608;8.838;2023-04-06T05:54:34;-0.20;59.70
32293;DHT22;43233;48.608;8.838;2023-04-06T05:57:02;-0.10;59.50
32293;DHT22;43233;48.608;8.838;2023-04-06T05:59:30;0.00;59.80
32293;DHT22;43233;48.608;8.838;2023-04-06T06:01:56;0.00;59.70
32293;DHT22;43233;48.608;8.838;2023-04-06T06:04:21;0.00;59.60
32293;DHT22;43233;48.608;8.838;2023-04-06T06:09:13;0.20;59.00
32293;DHT22;43233;48.608;8.838;2023-04-06T06:11:39;0.30;59.50
32293;DHT22;43233;48.608;8.838;2023-04-06T06:14:06;0.40;59.40
32293;DHT22;43233;48.608;8.838;2023-04-06T06:16:31;0.50;60.60
32293;DHT22;43233;48.608;8.838;2023-04-06T06:18:57;0.50;60.20
32293;DHT22;43233;48.608;8.838;2023-04-06T06:21:23;0.60;59.80
32293;DHT22;43233;48.608;8.838;2023-04-06T06:23:48;0.60;59.80
32293;DHT22;43233;48.608;8.838;2023-04-06T06:26:15;0.60;59.50
32293;DHT22;43233;48.608;8.838;2023-04-06T06:28:41;0.70;59.60
32293;DHT22;43233;48.608;8.838;2023-04-06T06:31:06;0.80;59.20
32293;DHT22;43233;48.608;8.838;2023-04-06T06:33:32;0.80;59.10
32293;DHT22;43233;48.608;8.838;2023-04-06T06:35:58;0.80;59.40
32293;DHT22;43233;48.608;8.838;2023-04-06T06:38:24;0.70;59.00
32293;DHT22;43233;48.608;8.838;2023-04-06T06:40:50;0.80;59.20
32293;DHT22;43233;48.608;8.838;2023-04-06T06:43:16;0.80;59.50
32293;DHT22;43233;48.608;8.838;2023-04-06T06:45:42;0.90;59.90
32293;DHT22;43233;48.608;8.838;2023-04-06T06:48:07;1.10;59.60
32293;DHT22;43233;48.608;8.838;2023-04-06T06:50:33;1.00;59.20
32293;DHT22;43233;48.608;8.838;2023-04-06T06:52:59;1.10;59.60
32293;DHT22;43233;48.608;8.838;2023-04-06T06:55:24;1.10;59.40
32293;DHT22;43233;48.608;8.838;2023-04-06T06:57:52;1.10;59.20
32293;DHT22;43233;48.608;8.838;2023-04-06T07:00:18;1.10;59.20
32293;DHT22;43233;48.608;8.838;2023-04-06T07:02:46;1.20;59.20
32293;DHT22;43233;48.608;8.838;2023-04-06T07:05:12;1.20;59.10
32293;DHT22;43233;48.608;8.838;2023-04-06T07:07:38;1.30;58.90
32293;DHT22;43233;48.608;8.838;2023-04-06T07:10:04;1.30;58.50
32293;DHT22;43233;48.608;8.838;2023-04-06T07:12:30;1.40;58.20
32293;DHT22;43233;48.608;8.838;2023-04-06T07:14:55;1.50;57.90
32293;DHT22;43233;48.608;8.838;2023-04-06T07:17:21;1.50;57.90
32293;DHT22;43233;48.608;8.838;2023-04-06T07:19:47;1.60;58.40
32293;DHT22;43233;48.608;8.838;2023-04-06T07:22:13;1.80;58.30
32293;DHT22;43233;48.608;8.838;2023-04-06T07:24:38;1.80;57.60
32293;DHT22;43233;48.608;8.838;2023-04-06T07:27:04;1.90;57.50
32293;DHT22;43233;48.608;8.838;2023-04-06T07:29:30;1.90;57.70
32293;DHT22;43233;48.608;8.838;2023-04-06T07:31:56;2.00;57.50
32293;DHT22;43233;48.608;8.838;2023-04-06T07:34:22;2.20;57.70
32293;DHT22;43233;48.608;8.838;2023-04-06T07:36:47;2.30;57.10
32293;DHT22;43233;48.608;8.838;2023-04-06T07:39:13;2.30;56.90
32293;DHT22;43233;48.608;8.838;2023-04-06T07:41:40;2.40;57.10
32293;DHT22;43233;48.608;8.838;2023-04-06T07:44:05;2.40;57.10
32293;DHT22;43233;48.608;8.838;2023-04-06T07:46:31;2.60;57.50
32293;DHT22;43233;48.608;8.838;2023-04-06T07:48:59;2.70;57.20
32293;DHT22;43233;48.608;8.838;2023-04-06T07:51:24;2.80;57.10
32293;DHT22;43233;48.608;8.838;2023-04-06T07:53:51;2.90;57.20
32293;DHT22;43233;48.608;8.838;2023-04-06T07:56:17;3.00;55.90
32293;DHT22;43233;48.608;8.838;2023-04-06T07:58:43;3.10;55.70
32293;DHT22;43233;48.608;8.838;2023-04-06T08:01:09;3.10;55.10
32293;DHT22;43233;48.608;8.838;2023-04-06T08:03:35;3.30;55.20
32293;DHT22;43233;48.608;8.838;2023-04-06T08:06:01;3.30;55.20
32293;DHT22;43233;48.608;8.838;2023-04-06T08:08:27;3.40;55.60
32293;DHT22;43233;48.608;8.838;2023-04-06T08:10:53;3.50;55.10
32293;DHT22;43233;48.608;8.838;2023-04-06T08:13:19;3.70;54.90
32293;DHT22;43233;48.608;8.838;2023-04-06T08:15:45;3.80;54.30
32293;DHT22;43233;48.608;8.838;2023-04-06T08:18:11;3.90;55.10
32293;DHT22;43233;48.608;8.838;2023-04-06T08:20:36;4.00;54.50
32293;DHT22;43233;48.608;8.838;2023-04-06T08:23:02;4.10;54.10
32293;DHT22;43233;48.608;8.838;2023-04-06T08:25:28;4.20;54.00
32293;DHT22;43233;48.608;8.838;2023-04-06T08:27:54;4.30;53.90
32293;DHT22;43233;48.608;8.838;2023-04-06T08:30:19;4.40;52.90
32293;DHT22;43233;48.608;8.838;2023-04-06T08:32:46;4.70;50.00
32293;DHT22;43233;48.608;8.838;2023-04-06T08:35:11;5.00;49.90
32293;DHT22;43233;48.608;8.838;2023-04-06T08:37:37;5.00;49.90
32293;DHT22;43233;48.608;8.838;2023-04-06T08:40:03;5.10;49.60
32293;DHT22;43233;48.608;8.838;2023-04-06T08:42:40;5.10;49.00
32293;DHT22;43233;48.608;8.838;2023-04-06T08:45:08;5.30;49.10
32293;DHT22;43233;48.608;8.838;2023-04-06T08:47:35;5.50;49.90
32293;DHT22;43233;48.608;8.838;2023-04-06T08:50:04;5.60;48.00
32293;DHT22;43233;48.608;8.838;2023-04-06T08:52:31;5.80;49.50
32293;DHT22;43233;48.608;8.838;2023-04-06T08:54:57;6.00;47.00
32293;DHT22;43233;48.608;8.838;2023-04-06T08:57:24;6.10;45.90
32293;DHT22;43233;48.608;8.838;2023-04-06T08:59:51;6.10;46.00
32293;DHT22;43233;48.608;8.838;2023-04-06T09:02:18;6.20;45.30
32293;DHT22;43233;48.608;8.838;2023-04-06T09:04:48;6.30;44.70
32293;DHT22;43233;48.608;8.838;2023-04-06T09:07:15;6.40;45.10
32293;DHT22;43233;48.608;8.838;2023-04-06T09:09:42;6.40;46.40
32293;DHT22;43233;48.608;8.838;2023-04-06T09:12:26;6.50;44.20
32293;DHT22;43233;48.608;8.838;2023-04-06T09:14:52;6.70;43.10
32293;DHT22;43233;48.608;8.838;2023-04-06T09:17:31;6.80;41.80
32293;DHT22;43233;48.608;8.838;2023-04-06T09:20:00;6.90;42.70
32293;DHT22;43233;48.608;8.838;2023-04-06T09:22:34;7.00;40.70
32293;DHT22;43233;48.608;8.838;2023-04-06T09:25:00;7.10;40.20
32293;DHT22;43233;48.608;8.838;2023-04-06T09:27:34;7.30;38.40
32293;DHT22;43233;48.608;8.838;2023-04-06T09:30:08;7.40;36.70
32293;DHT22;43233;48.608;8.838;2023-04-06T09:32:55;7.50;35.40
32293;DHT22;43233;48.608;8.838;2023-04-06T09:35:21;7.60;34.40
32293;DHT22;43233;48.608;8.838;2023-04-06T09:37:51;7.70;35.30
32293;DHT22;43233;48.608;8.838;2023-04-06T09:40:18;7.80;35.20
32293;DHT22;43233;48.608;8.838;2023-04-06T09:42:48;7.90;34.60
32293;DHT22;43233;48.608;8.838;2023-04-06T09:45:18;8.10;32.30
32293;DHT22;43233;48.608;8.838;2023-04-06T09:47:44;8.30;34.10
32293;DHT22;43233;48.608;8.838;2023-04-06T09:50:12;8.40;31.20
32293;DHT22;43233;48.608;8.838;2023-04-06T09:52:50;8.60;32.10
32293;DHT22;43233;48.608;8.838;2023-04-06T09:55:34;8.70;32.10
32293;DHT22;43233;48.608;8.838;2023-04-06T09:58:03;8.80;31.00
32293;DHT22;43233;48.608;8.838;2023-04-06T10:00:32;8.90;31.30
32293;DHT22;43233;48.608;8.838;2023-04-06T10:08:22;9.50;27.00
32293;DHT22;43233;48.608;8.838;2023-04-06T10:10:50;9.60;28.70
32293;DHT22;43233;48.608;8.838;2023-04-06T10:13:19;9.70;28.60
32293;DHT22;43233;48.608;8.838;2023-04-06T10:15:45;9.70;28.10
32293;DHT22;43233;48.608;8.838;2023-04-06T10:18:10;9.70;26.80
32293;DHT22;43233;48.608;8.838;2023-04-06T10:21:09;9.70;26.10
32293;DHT22;43233;48.608;8.838;2023-04-06T10:23:51;9.70;27.50
32293;DHT22;43233;48.608;8.838;2023-04-06T10:26:20;9.90;26.50
32293;DHT22;43233;48.608;8.838;2023-04-06T10:28:48;9.90;27.80
32293;DHT22;43233;48.608;8.838;2023-04-06T10:31:14;9.80;24.90
32293;DHT22;43233;48.608;8.838;2023-04-06T10:33:40;9.70;27.40
32293;DHT22;43233;48.608;8.838;2023-04-06T10:36:22;9.80;26.00
32293;DHT22;43233;48.608;8.838;2023-04-06T10:38:58;10.00;21.30
32293;DHT22;43233;48.608;8.838;2023-04-06T10:41:35;10.00;22.00
32293;DHT22;43233;48.608;8.838;2023-04-06T10:44:01;9.90;22.10
32293;DHT22;43233;48.608;8.838;2023-04-06T10:46:31;9.90;23.30
32293;DHT22;43233;48.608;8.838;2023-04-06T10:48:57;9.90;23.50
32293;DHT22;43233;48.608;8.838;2023-04-06T10:51:27;10.00;23.90
32293;DHT22;43233;48.608;8.838;2023-04-06T10:53:53;10.10;24.40
32293;DHT22;43233;48.608;8.838;2023-04-06T10:56:22;10.30;20.40
32293;DHT22;43233;48.608;8.838;2023-04-06T10:58:50;10.40;20.70
32293;DHT22;43233;48.608;8.838;2023-04-06T11:01:20;10.60;21.10
32293;DHT22;43233;48.608;8.838;2023-04-06T11:03:48;10.70;23.90
32293;DHT22;43233;48.608;8.838;2023-04-06T11:06:28;10.90;20.10
32293;DHT22;43233;48.608;8.838;2023-04-06T11:08:57;10.90;22.20
32293;DHT22;43233;48.608;8.838;2023-04-06T11:11:24;11.10;23.40
32293;DHT22;43233;48.608;8.838;2023-04-06T11:14:00;11.30;22.70
32293;DHT22;43233;48.608;8.838;2023-04-06T11:16:28;11.50;23.10
32293;DHT22;43233;48.608;8.838;2023-04-06T11:18:55;11.80;21.50
32293;DHT22;43233;48.608;8.838;2023-04-06T11:21:42;12.00;21.10
32293;DHT22;43233;48.608;8.838;2023-04-06T11:24:19;12.20;20.00
32293;DHT22;43233;48.608;8.838;2023-04-06T11:26:53;12.40;20.40
32293;DHT22;43233;48.608;8.838;2023-04-06T11:29:21;12.50;20.10
32293;DHT22;43233;48.608;8.838;2023-04-06T11:31:54;12.80;20.00
32293;DHT22;43233;48.608;8.838;2023-04-06T11:34:24;12.80;20.20
32293;DHT22;43233;48.608;8.838;2023-04-06T11:36:58;12.90;19.90
32293;DHT22;43233;48.608;8.838;2023-04-06T11:39:25;13.10;19.60
32293;DHT22;43233;48.608;8.838;2023-04-06T11:42:02;13.00;19.30
32293;DHT22;43233;48.608;8.838;2023-04-06T11:44:34;13.00;19.20
32293;DHT22;43233;48.608;8.838;2023-04-06T11:47:01;13.00;19.20
32293;DHT22;43233;48.608;8.838;2023-04-06T11:49:28;13.10;18.60
32293;DHT22;43233;48.608;8.838;2023-04-06T11:51:55;13.10;19.50
32293;DHT22;43233;48.608;8.838;2023-04-06T11:54:37;13.30;20.00
32293;DHT22;43233;48.608;8.838;2023-04-06T11:57:04;13.50;19.60
32293;DHT22;43233;48.608;8.838;2023-04-06T11:59:30;13.80;17.60
32293;DHT22;43233;48.608;8.838;2023-04-06T12:02:00;14.00;18.10
32293;DHT22;43233;48.608;8.838;2023-04-06T12:04:26;14.00;18.20
32293;DHT22;43233;48.608;8.838;2023-04-06T12:06:52;14.20;17.70
32293;DHT22;43233;48.608;8.838;2023-04-06T12:09:18;14.40;18.40
32293;DHT22;43233;48.608;8.838;2023-04-06T12:11:44;14.60;18.90
32293;DHT22;43233;48.608;8.838;2023-04-06T12:14:11;15.00;18.30
32293;DHT22;43233;48.608;8.838;2023-04-06T12:16:36;14.90;17.20
32293;DHT22;43233;48.608;8.838;2023-04-06T12:19:02;14.50;18.30
32293;DHT22;43233;48.608;8.838;2023-04-06T12:21:29;14.10;19.60
32293;DHT22;43233;48.608;8.838;2023-04-06T12:23:56;14.20;20.40
32293;DHT22;43233;48.608;8.838;2023-04-06T12:26:22;14.40;20.10
32293;DHT22;43233;48.608;8.838;2023-04-06T12:28:48;14.60;20.60
32293;DHT22;43233;48.608;8.838;2023-04-06T12:31:17;14.90;19.70
32293;DHT22;43233;48.608;8.838;2023-04-06T12:33:46;15.30;20.30
32293;DHT22;43233;48.608;8.838;2023-04-06T12:36:12;15.70;17.50
32293;DHT22;43233;48.608;8.838;2023-04-06T12:38:39;16.10;17.50
32293;DHT22;43233;48.608;8.838;2023-04-06T12:41:06;16.20;17.30
32293;DHT22;43233;48.608;8.838;2023-04-06T12:43:32;16.50;16.80
32293;DHT22;43233;48.608;8.838;2023-04-06T12:45:58;16.60;18.70
32293;DHT22;43233;48.608;8.838;2023-04-06T12:48:25;16.70;19.00
32293;DHT22;43233;48.608;8.838;2023-04-06T12:50:56;16.80;18.00
32293;DHT22;43233;48.608;8.838;2023-04-06T12:53:21;17.10;16.10
32293;DHT22;43233;48.608;8.838;2023-04-06T12:55:47;17.30;17.70
32293;DHT22;43233;48.608;8.838;2023-04-06T12:58:12;17.40;16.20
32293;DHT22;43233;48.608;8.838;2023-04-06T13:00:38;17.60;16.30
32293;DHT22;43233;48.608;8.838;2023-04-06T13:03:04;17.40;16.80
32293;DHT22;43233;48.608;8.838;2023-04-06T13:05:30;17.50;16.90
32293;DHT22;43233;48.608;8.838;2023-04-06T13:07:55;17.60;16.20
32293;DHT22;43233;48.608;8.838;2023-04-06T13:10:22;17.80;16.80
32293;DHT22;43233;48.608;8.838;2023-04-06T13:12:48;17.90;15.80
32293;DHT22;43233;48.608;8.838;2023-04-06T13:15:13;17.90;16.00
32293;DHT22;43233;48.608;8.838;2023-04-06T13:17:40;17.70;16.40
32293;DHT22;43233;48.608;8.838;2023-04-06T13:20:06;17.80;16.70
32293;DHT22;43233;48.608;8.838;2023-04-06T13:22:32;17.80;17.10
32293;DHT22;43233;48.608;8.838;2023-04-06T13:24:58;17.70;17.40
32293;DHT22;43233;48.608;8.838;2023-04-06T13:27:23;17.90;16.50
32293;DHT22;43233;48.608;8.838;2023-04-06T13:29:49;18.10;15.90
32293;DHT22;43233;48.608;8.838;2023-04-06T13:32:15;18.10;16.50
32293;DHT22;43233;48.608;8.838;2023-04-06T13:34:41;18.30;17.00
32293;DHT22;43233;48.608;8.838;2023-04-06T13:37:13;18.40;16.50
32293;DHT22;43233;48.608;8.838;2023-04-06T13:39:39;18.70;17.00
32293;DHT22;43233;48.608;8.838;2023-04-06T13:42:05;19.00;16.30
32293;DHT22;43233;48.608;8.838;2023-04-06T13:44:32;19.20;16.70
32293;DHT22;43233;48.608;8.838;2023-04-06T13:46:58;19.60;14.80
32293;DHT22;43233;48.608;8.838;2023-04-06T13:49:24;20.00;14.70
32293;DHT22;43233;48.608;8.838;2023-04-06T13:51:49;20.10;15.30
32293;DHT22;43233;48.608;8.838;2023-04-06T13:54:15;20.40;15.30
32293;DHT22;43233;48.608;8.838;2023-04-06T13:56:41;20.60;14.50
32293;DHT22;43233;48.608;8.838;2023-04-06T13:59:06;20.80;14.80
32293;DHT22;43233;48.608;8.838;2023-04-06T14:01:32;20.80;14.90
32293;DHT22;43233;48.608;8.838;2023-04-06T14:03:58;20.70;14.90
32293;DHT22;43233;48.608;8.838;2023-04-06T14:06:23;20.20;14.60
32293;DHT22;43233;48.608;8.838;2023-04-06T14:08:50;19.90;15.10
32293;DHT22;43233;48.608;8.838;2023-04-06T14:11:15;19.60;14.90
32293;DHT22;43233;48.608;8.838;2023-04-06T14:13:41;19.30;15.70
32293;DHT22;43233;48.608;8.838;2023-04-06T14:16:07;18.80;14.70
32293;DHT22;43233;48.608;8.838;2023-04-06T14:18:33;18.10;15.90
32293;DHT22;43233;48.608;8.838;2023-04-06T14:20:59;17.80;16.90
32293;DHT22;43233;48.608;8.838;2023-04-06T14:23:29;17.70;17.50
32293;DHT22;43233;48.608;8.838;2023-04-06T14:26:05;17.50;18.00
32293;DHT22;43233;48.608;8.838;2023-04-06T14:28:34;17.50;16.80
32293;DHT22;43233;48.608;8.838;2023-04-06T14:31:00;17.40;16.50
32293;DHT22;43233;48.608;8.838;2023-04-06T14:33:26;17.20;17.20
32293;DHT22;43233;48.608;8.838;2023-04-06T14:35:52;17.10;17.50
32293;DHT22;43233;48.608;8.838;2023-04-06T14:38:18;16.90;17.50
32293;DHT22;43233;48.608;8.838;2023-04-06T14:40:44;16.70;17.20
32293;DHT22;43233;48.608;8.838;2023-04-06T14:43:10;16.70;17.20
32293;DHT22;43233;48.608;8.838;2023-04-06T14:45:35;16.50;18.10
32293;DHT22;43233;48.608;8.838;2023-04-06T14:48:02;16.30;18.20
32293;DHT22;43233;48.608;8.838;2023-04-06T14:50:28;16.20;19.00
32293;DHT22;43233;48.608;8.838;2023-04-06T14:52:53;16.00;18.80
32293;DHT22;43233;48.608;8.838;2023-04-06T14:55:20;15.90;19.20
32293;DHT22;43233;48.608;8.838;2023-04-06T14:57:45;15.70;19.30
32293;DHT22;43233;48.608;8.838;2023-04-06T15:00:11;15.70;19.30
32293;DHT22;43233;48.608;8.838;2023-04-06T15:02:38;15.60;19.10
32293;DHT22;43233;48.608;8.838;2023-04-06T15:05:04;15.50;19.80
32293;DHT22;43233;48.608;8.838;2023-04-06T15:07:30;15.40;19.60
32293;DHT22;43233;48.608;8.838;2023-04-06T15:09:56;15.30;19.50
32293;DHT22;43233;48.608;8.838;2023-04-06T15:12:21;15.20;18.70
32293;DHT22;43233;48.608;8.838;2023-04-06T15:14:47;15.10;18.80
32293;DHT22;43233;48.608;8.838;2023-04-06T15:17:13;15.10;19.20
32293;DHT22;43233;48.608;8.838;2023-04-06T15:19:38;15.10;19.20
32293;DHT22;43233;48.608;8.838;2023-04-06T15:22:04;15.10;19.60
32293;DHT22;43233;48.608;8.838;2023-04-06T15:24:29;15.20;19.80
32293;DHT22;43233;48.608;8.838;2023-04-06T15:26:55;15.30;20.30
32293;DHT22;43233;48.608;8.838;2023-04-06T15:29:22;15.40;19.80
32293;DHT22;43233;48.608;8.838;2023-04-06T15:31:47;15.40;19.90
32293;DHT22;43233;48.608;8.838;2023-04-06T15:34:13;15.00;18.90
32293;DHT22;43233;48.608;8.838;2023-04-06T15:36:39;14.90;20.00
32293;DHT22;43233;48.608;8.838;2023-04-06T15:39:06;15.00;21.00
32293;DHT22;43233;48.608;8.838;2023-04-06T15:41:33;15.00;20.70
32293;DHT22;43233;48.608;8.838;2023-04-06T15:44:00;14.40;19.70